createdAt,value
2022-07-30T00:01:39.627Z,101361.53
2022-07-30T00:04:06.123Z,101379.25
2022-07-30T00:06:32.846Z,101383.72
2022-07-30T00:08:59.494Z,101356.56
2022-07-30T00:11:28.060Z,101379.78
2022-07-30T00:13:54.974Z,101374.16
2022-07-30T00:16:21.725Z,101378.59
2022-07-30T00:18:48.208Z,101381.97
2022-07-30T00:21:34.577Z,101377.28
2022-07-30T00:24:02.446Z,101372.69
2022-07-30T00:26:29.161Z,101372.22
2022-07-30T00:28:55.559Z,101373.28
2022-07-30T00:31:22.082Z,101366.50
2022-07-30T00:33:48.530Z,101346.38
2022-07-30T00:36:14.903Z,101351.84
2022-07-30T00:38:41.268Z,101343.25
2022-07-30T00:41:07.745Z,101345.28
2022-07-30T00:43:34.166Z,101348.09
2022-07-30T00:46:00.741Z,101353.69
2022-07-30T00:48:27.257Z,101328.41
2022-07-30T00:50:53.612Z,101346.34
2022-07-30T00:53:19.996Z,101353.94
2022-07-30T00:55:46.399Z,101348.84
2022-07-30T00:58:12.814Z,101306.59
2022-07-30T01:00:39.223Z,101298.78
2022-07-30T01:03:05.972Z,101332.44
2022-07-30T01:05:32.778Z,101347.31
2022-07-30T01:07:59.168Z,101320.19
2022-07-30T01:10:25.727Z,101329.81
2022-07-30T01:12:52.848Z,101336.91
2022-07-30T01:15:20.014Z,101357.00
2022-07-30T01:17:52.909Z,101356.03
2022-07-30T01:20:27.007Z,101346.69
2022-07-30T01:23:25.090Z,101348.84
2022-07-30T01:25:56.910Z,101355.38
2022-07-30T01:28:38.567Z,101323.13
2022-07-30T01:31:06.934Z,101347.84
2022-07-30T01:33:37.233Z,101211.09
2022-07-30T01:36:06.959Z,101318.09
2022-07-30T01:38:35.072Z,101341.25
2022-07-30T01:41:03.697Z,101338.78
2022-07-30T01:43:32.825Z,101320.38
2022-07-30T01:46:02.481Z,101310.00
2022-07-30T01:48:30.170Z,101343.34
2022-07-30T01:51:00.569Z,101284.16
2022-07-30T01:53:29.612Z,101337.00
2022-07-30T01:55:57.525Z,101347.78
2022-07-30T01:58:27.958Z,101350.44
2022-07-30T02:00:56.574Z,101352.34
2022-07-30T02:03:23.133Z,101339.63
2022-07-30T02:06:01.497Z,101350.03
2022-07-30T02:08:55.221Z,101311.13
2022-07-30T02:11:40.732Z,101347.78
2022-07-30T02:14:29.296Z,101351.66
2022-07-30T02:16:58.711Z,101352.59
2022-07-30T02:19:34.300Z,101350.81
2022-07-30T02:22:08.632Z,101353.47
2022-07-30T02:24:37.658Z,101357.88
2022-07-30T02:27:15.297Z,101360.75
2022-07-30T02:29:44.176Z,101357.91
2022-07-30T02:32:14.573Z,101363.88
2022-07-30T02:34:43.178Z,101363.03
2022-07-30T02:37:12.545Z,101321.66
2022-07-30T02:39:41.427Z,101364.41
2022-07-30T02:42:09.101Z,101364.34
2022-07-30T02:44:38.473Z,101343.34
2022-07-30T02:47:06.421Z,101370.00
2022-07-30T02:49:35.641Z,101370.97
2022-07-30T02:52:03.209Z,101354.81
2022-07-30T02:54:31.478Z,101372.06
2022-07-30T02:57:01.314Z,101347.72
2022-07-30T02:59:30.067Z,101327.94
2022-07-30T03:01:57.747Z,101351.03
2022-07-30T03:04:25.815Z,101369.78
2022-07-30T03:06:54.491Z,101313.97
2022-07-30T03:09:21.670Z,101367.72
2022-07-30T03:11:52.548Z,101375.00
2022-07-30T03:14:19.157Z,101370.75
2022-07-30T03:16:51.642Z,101358.00
2022-07-30T03:19:22.976Z,101329.53
2022-07-30T03:21:50.464Z,101369.78
2022-07-30T03:24:19.050Z,101368.94
2022-07-30T03:26:46.923Z,101372.78
2022-07-30T03:29:14.902Z,101371.19
2022-07-30T03:31:42.485Z,101352.81
2022-07-30T03:34:12.782Z,101341.88
2022-07-30T03:36:41.621Z,101374.44
2022-07-30T03:39:08.875Z,101372.84
2022-07-30T03:41:36.973Z,101376.44
2022-07-30T03:44:05.880Z,101336.50
2022-07-30T03:46:34.969Z,101372.28
2022-07-30T03:49:01.959Z,101360.84
2022-07-30T03:51:32.839Z,101356.53
2022-07-30T03:54:00.660Z,101378.56
2022-07-30T03:56:27.358Z,101333.63
2022-07-30T03:58:53.842Z,101363.50
2022-07-30T04:01:24.930Z,101388.44
2022-07-30T04:03:51.511Z,101372.16
2022-07-30T04:06:18.312Z,101385.72
2022-07-30T04:08:44.678Z,101374.16
2022-07-30T04:11:11.063Z,101389.31
2022-07-30T04:13:37.422Z,101375.69
2022-07-30T04:16:39.998Z,101397.06
2022-07-30T04:19:09.460Z,101375.53
2022-07-30T04:21:37.634Z,101414.53
2022-07-30T04:24:05.826Z,101403.63
2022-07-30T04:26:35.527Z,101411.06
2022-07-30T04:29:04.113Z,101407.63
2022-07-30T04:31:40.670Z,101400.22
2022-07-30T04:34:08.326Z,101402.88
2022-07-30T04:36:37.111Z,101391.81
2022-07-30T04:39:03.796Z,101391.81
2022-07-30T04:41:48.664Z,101408.44
2022-07-30T04:44:17.907Z,101379.06
2022-07-30T04:46:44.578Z,101389.34
2022-07-30T04:49:12.936Z,101374.22
2022-07-30T04:51:40.904Z,101393.09
2022-07-30T04:54:15.488Z,101402.56
2022-07-30T04:56:50.192Z,101382.84
2022-07-30T04:59:28.121Z,101356.00
2022-07-30T05:01:57.339Z,101348.34
2022-07-30T05:04:25.298Z,101400.88
2022-07-30T05:06:52.505Z,101385.59
2022-07-30T05:09:19.301Z,101362.53
2022-07-30T05:11:52.977Z,101360.25
2022-07-30T05:14:20.564Z,101358.88
2022-07-30T05:16:47.219Z,101380.00
2022-07-30T05:19:13.661Z,101381.72
2022-07-30T05:21:40.082Z,101369.75
2022-07-30T05:24:07.095Z,101392.16
2022-07-30T05:26:33.540Z,101385.28
2022-07-30T05:29:00.038Z,101419.09
2022-07-30T05:31:26.513Z,101174.81
2022-07-30T05:33:58.258Z,101395.44
2022-07-30T05:36:26.786Z,101387.41
2022-07-30T05:38:53.243Z,101427.56
2022-07-30T05:41:31.913Z,101364.44
2022-07-30T05:43:59.902Z,101422.66
2022-07-30T05:46:26.414Z,101429.09
2022-07-30T05:48:53.049Z,101352.66
2022-07-30T05:51:20.804Z,101402.88
2022-07-30T05:53:47.584Z,101425.06
2022-07-30T05:56:17.174Z,101407.00
2022-07-30T05:58:43.642Z,101358.19
2022-07-30T06:01:10.163Z,101433.13
2022-07-30T06:03:38.384Z,101388.13
2022-07-30T06:06:06.967Z,101387.09
2022-07-30T06:08:33.454Z,101404.28
2022-07-30T06:10:59.837Z,101354.84
2022-07-30T06:13:26.235Z,101421.13
2022-07-30T06:15:52.785Z,101395.66
2022-07-30T06:18:19.277Z,101420.50
2022-07-30T06:20:51.656Z,101398.63
2022-07-30T06:23:18.437Z,101418.81
2022-07-30T06:25:44.905Z,101394.81
2022-07-30T06:28:35.945Z,101393.66
2022-07-30T06:30:57.797Z,101394.06
2022-07-30T06:33:24.364Z,101405.28
2022-07-30T06:35:51.027Z,101416.44
2022-07-30T06:38:17.542Z,101423.88
2022-07-30T06:40:43.889Z,101378.09
2022-07-30T06:43:10.264Z,101422.50
2022-07-30T06:45:36.691Z,101415.66
2022-07-30T06:48:03.256Z,101365.28
2022-07-30T06:50:29.637Z,101410.25
2022-07-30T06:52:56.097Z,101410.56
2022-07-30T06:55:22.549Z,101394.00
2022-07-30T06:57:49.002Z,101400.78
2022-07-30T07:00:15.712Z,101407.22
2022-07-30T07:02:42.759Z,101394.88
2022-07-30T07:05:09.691Z,101407.94
2022-07-30T07:07:41.896Z,101392.47
2022-07-30T07:10:10.162Z,101416.56
2022-07-30T07:12:36.686Z,101407.09
2022-07-30T07:15:03.723Z,101420.50
2022-07-30T07:17:30.065Z,101410.91
2022-07-30T07:19:59.753Z,101406.00
2022-07-30T07:22:28.388Z,101419.63
2022-07-30T07:24:54.786Z,101420.75
2022-07-30T07:27:21.202Z,101424.50
2022-07-30T07:30:01.827Z,101362.00
2022-07-30T07:32:31.704Z,101408.41
2022-07-30T07:34:58.081Z,101413.56
2022-07-30T07:37:24.536Z,101411.78
2022-07-30T07:39:50.958Z,101428.59
2022-07-30T07:42:17.325Z,101427.25
2022-07-30T07:44:43.979Z,101417.56
2022-07-30T07:47:10.379Z,101426.28
2022-07-30T07:49:36.816Z,101422.03
2022-07-30T07:52:03.471Z,101415.31
2022-07-30T07:54:29.877Z,101404.25
2022-07-30T07:56:57.364Z,101431.72
2022-07-30T07:59:27.723Z,101427.28
2022-07-30T08:02:03.331Z,101431.19
2022-07-30T08:04:30.652Z,101413.16
2022-07-30T08:06:57.022Z,101421.28
2022-07-30T08:09:23.495Z,101393.81
2022-07-30T08:11:49.959Z,101407.00
2022-07-30T08:14:16.366Z,101418.16
2022-07-30T08:19:09.150Z,101380.75
2022-07-30T08:21:35.540Z,101363.91
2022-07-30T08:24:01.968Z,101395.28
2022-07-30T08:26:28.400Z,101386.41
2022-07-30T08:28:54.781Z,101396.78
2022-07-30T08:31:21.215Z,101393.41
2022-07-30T08:33:47.603Z,101406.31
2022-07-30T08:36:14.001Z,101407.59
2022-07-30T08:38:40.490Z,101372.75
2022-07-30T08:41:07.574Z,101416.16
2022-07-30T08:43:35.892Z,101131.25
2022-07-30T08:46:05.205Z,101420.34
2022-07-30T08:48:33.174Z,101416.41
2022-07-30T08:51:00.134Z,101419.59
2022-07-30T08:53:27.821Z,101429.47
2022-07-30T08:55:58.617Z,101422.47
2022-07-30T08:58:31.401Z,101425.53
2022-07-30T09:00:58.057Z,101430.88
2022-07-30T09:03:34.815Z,101456.97
2022-07-30T09:06:02.516Z,101432.06
2022-07-30T09:08:29.260Z,101449.22
2022-07-30T09:10:55.774Z,101427.88
2022-07-30T09:13:28.410Z,101437.31
2022-07-30T09:15:55.603Z,101433.56
2022-07-30T09:18:44.327Z,101429.03
2022-07-30T09:21:29.962Z,101438.38
2022-07-30T09:24:07.182Z,101436.09
2022-07-30T09:26:52.850Z,101297.09
2022-07-30T09:29:24.779Z,101432.88
2022-07-30T09:31:56.517Z,101418.31
2022-07-30T09:34:29.896Z,101426.31
2022-07-30T09:36:58.506Z,101404.53
2022-07-30T09:39:32.107Z,101431.50
2022-07-30T09:41:59.140Z,101434.94
2022-07-30T09:44:28.081Z,101428.69
2022-07-30T09:46:54.496Z,101426.97
2022-07-30T09:49:23.603Z,101439.81
2022-07-30T09:51:56.023Z,101441.34
2022-07-30T09:54:24.146Z,101422.97
2022-07-30T09:57:07.397Z,101432.94
2022-07-30T09:59:53.288Z,101392.97
2022-07-30T10:02:19.953Z,101439.31
2022-07-30T10:04:46.856Z,101434.34
2022-07-30T10:07:24.835Z,101444.19
2022-07-30T10:09:53.320Z,101394.00
2022-07-30T10:12:20.572Z,101448.09
2022-07-30T10:14:53.652Z,101369.22
2022-07-30T10:17:22.178Z,101437.84
2022-07-30T10:19:49.078Z,101356.47
2022-07-30T10:22:16.956Z,101372.03
2022-07-30T10:24:45.659Z,101440.19
2022-07-30T10:27:12.683Z,101385.63
2022-07-30T10:29:42.669Z,101424.72
2022-07-30T10:32:10.519Z,101453.63
2022-07-30T10:34:38.260Z,101464.41
2022-07-30T10:37:10.980Z,101421.97
2022-07-30T10:40:08.525Z,101467.38
2022-07-30T10:42:57.129Z,101476.06
2022-07-30T10:45:46.379Z,101453.91
2022-07-30T10:48:13.900Z,101402.84
2022-07-30T10:50:57.938Z,101476.75
2022-07-30T10:53:48.540Z,101464.78
2022-07-30T10:56:25.465Z,101436.59
2022-07-30T10:59:08.719Z,101471.00
2022-07-30T11:01:50.013Z,101465.78
2022-07-30T11:04:25.818Z,101465.34
2022-07-30T11:07:24.048Z,101468.91
2022-07-30T11:10:08.857Z,101467.22
2022-07-30T11:12:42.077Z,101456.22
2022-07-30T11:15:19.107Z,101466.56
2022-07-30T11:18:13.033Z,101492.22
2022-07-30T11:20:43.236Z,101482.84
2022-07-30T11:23:24.380Z,101476.34
2022-07-30T11:25:54.512Z,101473.25
2022-07-30T11:28:41.052Z,101479.59
2022-07-30T11:32:07.567Z,101399.06
2022-07-30T11:34:20.088Z,101467.63
2022-07-30T11:37:18.964Z,101470.47
2022-07-30T11:39:57.919Z,101464.59
2022-07-30T11:42:28.785Z,101457.56
2022-07-30T11:45:16.822Z,101474.41
2022-07-30T11:47:48.097Z,101474.09
2022-07-30T11:50:21.222Z,101487.56
2022-07-30T11:52:55.685Z,101451.13
2022-07-30T11:55:27.551Z,101486.22
2022-07-30T11:57:55.405Z,101480.28
2022-07-30T12:00:23.005Z,101455.06
2022-07-30T12:05:25.134Z,101456.38
2022-07-30T12:07:56.021Z,101482.00
2022-07-30T12:10:26.849Z,101466.75
2022-07-30T12:13:07.925Z,101391.03
2022-07-30T12:15:36.730Z,101431.09
2022-07-30T12:18:25.313Z,101468.81
2022-07-30T12:20:54.797Z,101465.78
2022-07-30T12:23:25.632Z,101458.84
2022-07-30T12:25:52.927Z,101451.50
2022-07-30T12:28:24.521Z,101357.88
2022-07-30T12:30:52.693Z,101464.59
2022-07-30T12:33:19.959Z,101467.63
2022-07-30T12:35:58.333Z,101466.13
2022-07-30T12:38:26.954Z,101457.53
2022-07-30T12:41:04.803Z,101457.88
2022-07-30T12:43:53.872Z,101483.31
2022-07-30T12:46:24.423Z,101477.59
2022-07-30T12:49:01.179Z,101471.53
2022-07-30T12:51:52.047Z,101459.97
2022-07-30T12:54:19.840Z,101436.72
2022-07-30T12:57:06.549Z,101487.19
2022-07-30T12:59:34.835Z,101449.63
2022-07-30T13:02:01.489Z,101406.00
2022-07-30T13:04:28.525Z,101471.50
2022-07-30T13:07:10.590Z,101495.06
2022-07-30T13:09:38.229Z,101484.66
2022-07-30T13:12:05.054Z,101475.56
2022-07-30T13:14:32.316Z,101433.94
2022-07-30T13:16:58.992Z,101475.50
2022-07-30T13:19:26.962Z,101457.19
2022-07-30T13:21:53.502Z,101459.78
2022-07-30T13:24:20.470Z,101452.06
2022-07-30T13:26:47.211Z,101424.34
2022-07-30T13:29:14.033Z,101491.03
2022-07-30T13:31:42.355Z,101477.06
2022-07-30T13:34:10.702Z,101492.03
2022-07-30T13:36:37.096Z,101506.19
2022-07-30T13:39:03.680Z,101504.34
2022-07-30T13:41:30.450Z,101426.88
2022-07-30T13:43:56.820Z,101480.59
2022-07-30T13:46:23.218Z,101501.69
2022-07-30T13:48:49.847Z,101473.84
2022-07-30T13:51:25.953Z,101509.25
2022-07-30T13:53:52.343Z,101507.38
2022-07-30T13:56:19.813Z,101459.56
2022-07-30T13:58:46.426Z,101450.94
2022-07-30T14:01:17.651Z,101476.94
2022-07-30T14:03:49.343Z,101480.47
2022-07-30T14:06:18.427Z,101468.69
2022-07-30T14:08:44.999Z,101484.72
2022-07-30T14:11:11.418Z,101473.59
2022-07-30T14:13:38.029Z,101483.75
2022-07-30T14:16:08.182Z,101460.06
2022-07-30T14:18:44.498Z,101429.91
2022-07-30T14:21:10.911Z,101422.47
2022-07-30T14:23:37.399Z,101460.06
2022-07-30T14:26:03.874Z,101333.03
2022-07-30T14:28:30.296Z,101461.66
2022-07-30T14:30:56.757Z,101487.59
2022-07-30T14:33:23.238Z,101485.56
2022-07-30T14:35:49.589Z,101483.72
2022-07-30T14:38:16.786Z,101498.44
2022-07-30T14:40:43.177Z,101476.72
2022-07-30T14:43:09.583Z,101494.75
2022-07-30T14:45:36.595Z,101480.97
2022-07-30T14:48:03.292Z,101485.13
2022-07-30T14:50:29.667Z,101472.50
2022-07-30T14:52:56.173Z,101450.19
2022-07-30T14:55:22.586Z,101488.97
2022-07-30T14:57:49.044Z,101468.06
2022-07-30T15:00:16.202Z,101500.47
2022-07-30T15:02:42.664Z,101465.03
2022-07-30T15:05:09.366Z,101492.06
2022-07-30T15:07:35.763Z,101486.97
2022-07-30T15:10:02.528Z,101454.47
2022-07-30T15:12:29.131Z,101464.81
2022-07-30T15:14:55.616Z,101497.69
2022-07-30T15:17:22.254Z,101505.56
2022-07-30T15:19:50.236Z,101493.53
2022-07-30T15:22:17.909Z,101480.53
2022-07-30T15:24:44.352Z,101484.84
2022-07-30T15:27:10.794Z,101512.94
2022-07-30T15:29:37.225Z,101521.53
2022-07-30T15:32:04.026Z,101516.16
2022-07-30T15:34:34.160Z,101459.41
2022-07-30T15:37:02.538Z,101475.44
2022-07-30T15:39:32.891Z,101502.66
2022-07-30T15:42:01.788Z,101462.03
2022-07-30T15:44:29.121Z,101514.63
2022-07-30T15:46:55.492Z,101515.63
2022-07-30T15:49:22.173Z,101516.63
2022-07-30T15:51:48.807Z,101509.06
2022-07-30T15:54:22.426Z,101430.13
2022-07-30T15:56:49.564Z,101440.66
2022-07-30T15:59:16.299Z,101422.97
2022-07-30T16:01:44.018Z,101492.09
2022-07-30T16:04:20.025Z,101448.13
2022-07-30T16:06:48.198Z,101489.56
2022-07-30T16:09:15.829Z,101493.03
2022-07-30T16:11:42.929Z,101496.78
2022-07-30T16:14:09.490Z,101463.72
2022-07-30T16:16:35.894Z,101496.16
2022-07-30T16:19:02.268Z,101493.06
2022-07-30T16:21:28.693Z,101434.84
2022-07-30T16:23:55.162Z,101437.78
2022-07-30T16:26:21.625Z,101506.56
2022-07-30T16:28:48.221Z,101428.78
2022-07-30T16:31:14.731Z,101502.66
2022-07-30T16:33:41.418Z,101504.50
2022-07-30T16:36:08.036Z,101436.09
2022-07-30T16:38:34.541Z,101508.16
2022-07-30T16:41:00.903Z,101460.16
2022-07-30T16:43:27.270Z,101504.75
2022-07-30T16:45:53.709Z,101504.59
2022-07-30T16:48:20.131Z,101458.63
2022-07-30T16:50:46.669Z,101500.41
2022-07-30T16:53:14.412Z,101497.84
2022-07-30T16:55:42.058Z,101501.19
2022-07-30T16:58:08.829Z,101500.31
2022-07-30T17:00:35.789Z,101504.41
2022-07-30T17:03:02.345Z,101510.28
2022-07-30T17:05:29.010Z,101465.53
2022-07-30T17:07:55.706Z,101467.66
2022-07-30T17:10:23.550Z,101502.41
2022-07-30T17:12:53.365Z,101500.03
2022-07-30T17:15:19.775Z,101490.91
2022-07-30T17:17:46.190Z,101347.16
2022-07-30T17:20:14.369Z,101476.41
2022-07-30T17:22:43.074Z,101465.72
2022-07-30T17:25:09.998Z,101479.75
2022-07-30T17:27:37.352Z,101515.31
2022-07-30T17:30:04.905Z,101498.41
2022-07-30T17:32:31.568Z,101463.09
2022-07-30T17:34:58.030Z,101514.84
2022-07-30T17:37:24.581Z,101514.41
2022-07-30T17:40:26.947Z,101516.59
2022-07-30T17:42:38.443Z,101524.47
2022-07-30T17:45:06.297Z,101527.44
2022-07-30T17:47:32.735Z,101473.38
2022-07-30T17:49:59.630Z,101515.06
2022-07-30T17:52:26.759Z,101523.94
2022-07-30T17:54:53.654Z,101463.88
2022-07-30T17:57:20.836Z,101474.34
2022-07-30T17:59:47.354Z,101467.94
2022-07-30T18:02:14.154Z,101530.81
2022-07-30T18:04:40.633Z,101499.88
2022-07-30T18:07:07.052Z,101532.94
2022-07-30T18:09:38.875Z,101543.25
2022-07-30T18:12:06.857Z,101535.50
2022-07-30T18:14:33.389Z,101534.22
2022-07-30T18:17:00.469Z,101536.13
2022-07-30T18:19:27.237Z,101538.56
2022-07-30T18:21:54.109Z,101539.44
2022-07-30T18:24:21.110Z,101524.09
2022-07-30T18:26:51.457Z,101472.13
2022-07-30T18:29:17.914Z,101521.47
2022-07-30T18:31:44.352Z,101557.53
2022-07-30T18:34:11.709Z,101482.28
2022-07-30T18:36:38.123Z,101502.25
2022-07-30T18:39:04.717Z,101514.88
2022-07-30T18:41:31.139Z,101574.88
2022-07-30T18:43:57.541Z,101524.63
2022-07-30T18:46:26.329Z,101547.31
2022-07-30T18:48:52.915Z,101574.81
2022-07-30T18:51:19.347Z,101569.50
2022-07-30T18:53:46.330Z,101585.00
2022-07-30T18:56:12.755Z,101519.91
2022-07-30T18:58:39.129Z,101588.81
2022-07-30T19:01:05.676Z,101554.56
2022-07-30T19:03:32.243Z,101571.47
2022-07-30T19:05:58.676Z,101506.44
2022-07-30T19:08:25.068Z,101575.31
2022-07-30T19:10:51.720Z,101587.88
2022-07-30T19:13:18.545Z,101558.84
2022-07-30T19:15:45.044Z,101559.69
2022-07-30T19:18:11.547Z,101575.31
2022-07-30T19:20:38.000Z,101533.34
2022-07-30T19:23:07.679Z,101581.81
2022-07-30T19:25:35.763Z,101572.38
2022-07-30T19:28:03.212Z,101536.16
2022-07-30T19:30:30.065Z,101588.19
2022-07-30T19:33:03.184Z,101556.59
2022-07-30T19:35:30.064Z,101577.19
2022-07-30T19:37:56.468Z,101555.59
2022-07-30T19:40:23.227Z,101597.50
2022-07-30T19:42:55.978Z,101585.94
2022-07-30T19:45:23.130Z,101567.97
2022-07-30T19:47:49.550Z,101605.25
2022-07-30T19:50:16.058Z,101554.56
2022-07-30T19:52:51.354Z,101604.03
2022-07-30T19:55:30.777Z,101587.28
2022-07-30T19:58:01.945Z,101586.16
2022-07-30T20:00:29.913Z,101595.75
2022-07-30T20:02:56.960Z,101616.91
2022-07-30T20:05:25.055Z,101615.25
2022-07-30T20:07:52.032Z,101615.03
2022-07-30T20:10:19.557Z,101599.53
2022-07-30T20:12:49.115Z,101504.47
2022-07-30T20:15:16.235Z,101619.53
2022-07-30T20:17:42.770Z,101605.69
2022-07-30T20:20:10.147Z,101611.47
2022-07-30T20:22:36.597Z,101617.78
2022-07-30T20:25:05.871Z,101572.09
2022-07-30T20:27:38.499Z,101613.44
2022-07-30T20:30:07.059Z,101517.47
2022-07-30T20:32:34.392Z,101601.41
2022-07-30T20:35:00.824Z,101627.78
2022-07-30T20:37:27.867Z,101586.47
2022-07-30T20:39:55.000Z,101589.56
2022-07-30T20:42:23.839Z,101572.75
2022-07-30T20:44:53.177Z,101601.13
2022-07-30T20:47:38.538Z,101620.44
2022-07-30T20:50:10.330Z,101600.72
2022-07-30T20:52:40.844Z,101541.19
2022-07-30T20:55:16.291Z,101615.25
2022-07-30T20:57:56.358Z,101616.47
2022-07-30T21:00:26.283Z,101619.31
2022-07-30T21:02:52.692Z,101550.25
2022-07-30T21:05:19.801Z,101602.06
2022-07-30T21:07:47.134Z,101541.09
2022-07-30T21:13:03.551Z,101603.59
2022-07-30T21:15:36.052Z,101609.09
2022-07-30T21:18:03.057Z,101552.19
2022-07-30T21:20:31.167Z,101550.34
2022-07-30T21:23:11.300Z,101612.66
2022-07-30T21:26:00.908Z,101622.22
2022-07-30T21:28:28.171Z,101609.50
2022-07-30T21:30:54.856Z,101582.66
2022-07-30T21:33:23.945Z,101559.75
2022-07-30T21:35:56.754Z,101588.53
2022-07-30T21:38:26.268Z,101611.47
2022-07-30T21:40:52.646Z,101600.22
2022-07-30T21:43:29.693Z,101585.09
2022-07-30T21:45:58.151Z,101563.94
2022-07-30T21:48:25.388Z,101598.34
2022-07-30T21:50:54.151Z,101543.44
2022-07-30T21:53:29.713Z,101595.00
2022-07-30T21:56:07.162Z,101538.81
2022-07-30T21:58:33.998Z,101556.25
2022-07-30T22:01:17.570Z,101591.59
2022-07-30T22:04:03.732Z,101591.06
2022-07-30T22:06:37.674Z,101508.38
2022-07-30T22:09:18.260Z,101590.09
2022-07-30T22:11:52.527Z,101584.28
2022-07-30T22:14:18.935Z,101570.53
2022-07-30T22:16:46.471Z,101574.78
2022-07-30T22:19:14.477Z,101558.84
2022-07-30T22:21:42.312Z,101586.78
2022-07-30T22:24:08.838Z,101559.81
2022-07-30T22:26:35.230Z,101546.75
2022-07-30T22:29:01.682Z,101580.78
2022-07-30T22:31:28.098Z,101527.53
2022-07-30T22:34:05.803Z,101523.28
2022-07-30T22:36:37.856Z,101568.06
2022-07-30T22:39:04.307Z,101538.06
2022-07-30T22:41:35.714Z,101565.03
2022-07-30T22:44:03.408Z,101439.78
2022-07-30T22:46:31.937Z,101558.56
2022-07-30T22:48:59.224Z,101560.28
2022-07-30T22:51:25.861Z,101577.13
2022-07-30T22:54:12.776Z,101527.81
2022-07-30T22:56:41.332Z,101573.72
2022-07-30T22:59:07.770Z,101557.97
2022-07-30T23:01:34.354Z,101520.66
2022-07-30T23:04:01.577Z,101571.78
2022-07-30T23:06:28.271Z,101559.41
2022-07-30T23:08:56.657Z,101576.75
2022-07-30T23:11:23.082Z,101570.94
2022-07-30T23:12:26.824Z,101550.94
2022-07-30T23:13:49.584Z,101586.09
2022-07-30T23:16:18.078Z,101508.69
2022-07-30T23:18:44.473Z,101522.72
2022-07-30T23:21:11.147Z,101555.78
2022-07-30T23:23:37.541Z,101532.06
2022-07-30T23:26:04.753Z,101566.84
2022-07-30T23:28:31.203Z,101560.16
2022-07-30T23:30:57.756Z,101565.03
2022-07-30T23:33:24.117Z,101529.63
2022-07-30T23:35:51.693Z,101551.44
2022-07-30T23:38:18.282Z,101531.47
2022-07-30T23:40:44.804Z,101514.94
2022-07-30T23:43:11.179Z,101548.41
2022-07-30T23:45:37.539Z,101522.19
2022-07-30T23:48:04.138Z,101536.19
2022-07-30T23:50:31.502Z,101540.84
2022-07-30T23:52:58.013Z,101533.47
2022-07-30T23:55:24.383Z,101527.91
2022-07-30T23:57:51.928Z,101511.91
